createdAt,value
2019-06-20T00:00:16.031Z,8.00
2019-06-20T00:01:16.092Z,4.00
2019-06-20T00:02:16.240Z,4.00
2019-06-20T00:03:16.174Z,8.00
2019-06-20T00:04:16.126Z,8.00
2019-06-20T00:05:16.224Z,8.00
2019-06-20T00:06:16.031Z,8.00
2019-06-20T00:07:16.580Z,8.00
2019-06-20T00:08:16.012Z,8.00
2019-06-20T00:09:15.980Z,8.00
2019-06-20T00:10:16.090Z,8.00
2019-06-20T00:11:17.607Z,12.00
2019-06-20T00:12:16.701Z,12.00
2019-06-20T00:13:16.107Z,12.00
2019-06-20T00:14:15.976Z,12.00
2019-06-20T00:15:18.625Z,16.00
2019-06-20T00:16:16.143Z,16.00
2019-06-20T00:17:15.991Z,16.00
2019-06-20T00:18:16.602Z,16.00
2019-06-20T00:19:15.962Z,16.00
2019-06-20T00:20:16.107Z,20.00
2019-06-20T00:21:15.832Z,16.00
2019-06-20T00:22:15.816Z,20.00
2019-06-20T00:23:15.988Z,20.00
2019-06-20T00:24:15.852Z,24.00
2019-06-20T00:25:15.920Z,20.00
2019-06-20T00:26:16.000Z,24.00
2019-06-20T00:27:15.932Z,24.00
2019-06-20T00:28:17.642Z,28.00
2019-06-20T00:29:15.857Z,28.00
2019-06-20T00:30:15.767Z,28.00
2019-06-20T00:31:17.596Z,36.00
2019-06-20T00:32:15.786Z,36.00
2019-06-20T00:33:15.854Z,36.00
2019-06-20T00:35:17.629Z,44.00
2019-06-20T00:36:15.805Z,44.00
2019-06-20T00:37:16.678Z,44.00
2019-06-20T00:38:17.531Z,48.00
2019-06-20T00:39:16.571Z,52.00
2019-06-20T00:40:15.811Z,56.00
2019-06-20T00:41:15.722Z,60.00
2019-06-20T00:42:16.640Z,60.00
2019-06-20T00:43:17.975Z,64.00
2019-06-20T00:44:16.507Z,68.00
2019-06-20T00:45:17.633Z,72.00
2019-06-20T00:46:15.618Z,76.00
2019-06-20T00:47:15.732Z,80.00
2019-06-20T00:48:19.995Z,84.00
2019-06-20T00:49:15.450Z,88.00
2019-06-20T00:50:15.990Z,92.00
2019-06-20T00:51:15.461Z,100.00
2019-06-20T00:52:15.518Z,100.00
2019-06-20T00:53:15.548Z,104.00
2019-06-20T00:54:16.197Z,108.00
2019-06-20T00:55:15.638Z,116.00
2019-06-20T00:56:18.107Z,120.00
2019-06-20T00:57:15.739Z,128.00
2019-06-20T00:58:16.077Z,132.00
2019-06-20T00:59:17.151Z,140.00
2019-06-20T01:00:17.123Z,144.00
2019-06-20T01:01:15.561Z,148.00
2019-06-20T01:02:15.522Z,160.00
2019-06-20T01:03:16.002Z,164.00
2019-06-20T01:04:15.516Z,172.00
2019-06-20T01:05:15.410Z,184.00
2019-06-20T01:06:15.482Z,188.00
2019-06-20T01:07:15.363Z,200.00
2019-06-20T01:08:15.371Z,208.00
2019-06-20T01:09:15.504Z,216.00
2019-06-20T01:10:15.337Z,224.00
2019-06-20T01:11:15.393Z,232.00
2019-06-20T01:12:15.451Z,244.00
2019-06-20T01:13:15.252Z,252.00
2019-06-20T01:14:17.184Z,260.00
2019-06-20T01:15:15.381Z,272.00
2019-06-20T01:16:15.387Z,280.00
2019-06-20T01:17:15.408Z,292.00
2019-06-20T01:18:17.134Z,304.00
2019-06-20T01:19:16.243Z,312.00
2019-06-20T01:20:15.226Z,324.00
2019-06-20T01:21:15.226Z,332.00
2019-06-20T01:22:15.202Z,344.00
2019-06-20T01:23:15.419Z,360.00
2019-06-20T01:24:16.216Z,372.00
2019-06-20T01:25:15.242Z,388.00
2019-06-20T01:26:15.249Z,400.00
2019-06-20T01:27:15.360Z,420.00
2019-06-20T01:28:15.325Z,436.00
2019-06-20T01:29:15.166Z,452.00
2019-06-20T01:30:15.200Z,472.00
2019-06-20T01:31:15.122Z,488.00
2019-06-20T01:32:15.140Z,508.00
2019-06-20T01:33:15.152Z,524.00
2019-06-20T01:34:15.366Z,544.00
2019-06-20T01:35:15.093Z,564.00
2019-06-20T01:36:15.026Z,576.00
2019-06-20T01:37:15.239Z,596.00
2019-06-20T01:38:15.333Z,612.00
2019-06-20T01:39:15.078Z,632.00
2019-06-20T01:40:15.049Z,648.00
2019-06-20T01:41:15.023Z,668.00
2019-06-20T01:42:15.102Z,688.00
2019-06-20T01:43:16.671Z,708.00
2019-06-20T01:44:15.637Z,724.00
2019-06-20T01:45:15.590Z,740.00
2019-06-20T01:46:14.886Z,752.00
2019-06-20T01:47:15.140Z,768.00
2019-06-20T01:48:14.911Z,784.00
2019-06-20T01:49:15.070Z,800.00
2019-06-20T01:50:15.023Z,816.00
2019-06-20T01:51:14.932Z,832.00
2019-06-20T01:52:15.084Z,852.00
2019-06-20T01:53:14.930Z,872.00
2019-06-20T01:54:14.933Z,892.00
2019-06-20T01:55:14.879Z,920.00
2019-06-20T01:56:14.825Z,952.00
2019-06-20T01:57:15.010Z,980.00
2019-06-20T01:58:14.893Z,1004.00
2019-06-20T01:59:15.050Z,1020.00
2019-06-20T02:00:14.813Z,1040.00
2019-06-20T02:01:14.959Z,1072.00
2019-06-20T02:02:14.898Z,1112.00
2019-06-20T02:03:14.891Z,1148.00
2019-06-20T02:04:14.986Z,1188.00
2019-06-20T02:05:14.932Z,1228.00
2019-06-20T02:06:15.741Z,1268.00
2019-06-20T02:07:14.891Z,1304.00
2019-06-20T02:08:14.750Z,1328.00
2019-06-20T02:09:14.723Z,1348.00
2019-06-20T02:10:15.689Z,1364.00
2019-06-20T02:11:14.797Z,1380.00
2019-06-20T02:12:14.898Z,1404.00
2019-06-20T02:13:14.718Z,1436.00
2019-06-20T02:14:14.702Z,1472.00
2019-06-20T02:15:14.850Z,1516.00
2019-06-20T02:16:14.768Z,1560.00
2019-06-20T02:17:14.820Z,1608.00
2019-06-20T02:18:14.666Z,1656.00
2019-06-20T02:19:16.276Z,1708.00
2019-06-20T02:20:14.679Z,1752.00
2019-06-20T02:21:14.787Z,1796.00
2019-06-20T02:22:14.790Z,1824.00
2019-06-20T02:23:14.750Z,1836.00
2019-06-20T02:24:14.814Z,1840.00
2019-06-20T02:25:15.292Z,1836.00
2019-06-20T02:26:14.562Z,1832.00
2019-06-20T02:27:14.653Z,1840.00
2019-06-20T02:28:14.791Z,1856.00
2019-06-20T02:29:14.556Z,1872.00
2019-06-20T02:30:14.512Z,1892.00
2019-06-20T02:31:14.644Z,1912.00
2019-06-20T02:32:15.287Z,1928.00
2019-06-20T02:33:14.695Z,1928.00
2019-06-20T02:34:14.493Z,1940.00
2019-06-20T02:35:14.718Z,1952.00
2019-06-20T02:36:14.552Z,1960.00
2019-06-20T02:38:14.494Z,1932.00
2019-06-20T02:39:14.578Z,1900.00
2019-06-20T02:40:14.467Z,1864.00
2019-06-20T02:41:14.378Z,1844.00
2019-06-20T02:42:14.438Z,1840.00
2019-06-20T02:43:14.561Z,1856.00
2019-06-20T02:44:29.219Z,1880.00
2019-06-20T02:45:14.431Z,1896.00
2019-06-20T02:46:14.459Z,1924.00
2019-06-20T02:47:14.525Z,1964.00
2019-06-20T02:48:14.338Z,2008.00
2019-06-20T02:50:14.596Z,2104.00
2019-06-20T02:51:14.427Z,2156.00
2019-06-20T02:52:14.374Z,2196.00
2019-06-20T02:53:14.311Z,2220.00
2019-06-20T02:54:16.229Z,2240.00
2019-06-20T02:55:14.495Z,2248.00
2019-06-20T02:56:14.307Z,2240.00
2019-06-20T02:57:14.173Z,2240.00
2019-06-20T02:58:14.486Z,2248.00
2019-06-20T02:59:14.495Z,2256.00
2019-06-20T03:00:14.257Z,2276.00
2019-06-20T03:01:15.201Z,2300.00
2019-06-20T03:02:14.275Z,2324.00
2019-06-20T03:03:14.255Z,2388.00
2019-06-20T03:04:14.205Z,2408.00
2019-06-20T03:05:14.259Z,2448.00
2019-06-20T03:06:14.295Z,2444.00
2019-06-20T03:07:14.315Z,2456.00
2019-06-20T03:08:15.221Z,2444.00
2019-06-20T03:09:14.293Z,2448.00
2019-06-20T03:10:14.158Z,2412.00
2019-06-20T03:11:14.630Z,2408.00
2019-06-20T03:12:14.241Z,2412.00
2019-06-20T03:13:14.268Z,2384.00
2019-06-20T03:14:14.676Z,2364.00
2019-06-20T03:15:14.200Z,2356.00
2019-06-20T03:16:14.136Z,2380.00
2019-06-20T03:17:14.163Z,2412.00
2019-06-20T03:18:14.018Z,2336.00
2019-06-20T03:19:14.160Z,2328.00
2019-06-20T03:20:14.257Z,2336.00
2019-06-20T03:21:14.185Z,2348.00
2019-06-20T03:22:14.213Z,2348.00
2019-06-20T03:23:14.065Z,2352.00
2019-06-20T03:24:14.772Z,2360.00
2019-06-20T03:25:14.002Z,2368.00
2019-06-20T03:26:13.949Z,2368.00
2019-06-20T03:27:14.031Z,2360.00
2019-06-20T03:28:13.918Z,2348.00
2019-06-20T03:29:14.170Z,2328.00
2019-06-20T03:30:14.016Z,2308.00
2019-06-20T03:31:14.159Z,2292.00
2019-06-20T03:32:15.738Z,2276.00
2019-06-20T03:33:14.102Z,2256.00
2019-06-20T03:34:14.076Z,2232.00
2019-06-20T03:35:13.892Z,2208.00
2019-06-20T03:36:14.804Z,2184.00
2019-06-20T03:37:14.571Z,2164.00
2019-06-20T03:38:13.931Z,2144.00
2019-06-20T03:39:13.934Z,2132.00
2019-06-20T03:40:15.816Z,2124.00
2019-06-20T03:41:13.843Z,2132.00
2019-06-20T03:42:16.702Z,2140.00
2019-06-20T03:43:14.058Z,2132.00
2019-06-20T03:44:13.779Z,2136.00
2019-06-20T03:45:14.016Z,2148.00
2019-06-20T03:46:14.666Z,2160.00
2019-06-20T03:47:13.855Z,2172.00
2019-06-20T03:48:13.919Z,2200.00
2019-06-20T03:49:13.691Z,2244.00
2019-06-20T03:50:13.860Z,2280.00
2019-06-20T03:51:13.759Z,2296.00
2019-06-20T03:52:20.711Z,2348.00
2019-06-20T03:53:13.771Z,2380.00
2019-06-20T03:54:13.821Z,2484.00
2019-06-20T03:55:13.656Z,2660.00
2019-06-20T03:56:13.774Z,2724.00
2019-06-20T03:57:13.622Z,2764.00
2019-06-20T03:58:13.716Z,2736.00
2019-06-20T03:59:13.875Z,2664.00
2019-06-20T04:00:14.304Z,2620.00
2019-06-20T04:01:14.370Z,2528.00
2019-06-20T04:02:13.664Z,2572.00
2019-06-20T04:03:14.266Z,2644.00
2019-06-20T04:04:13.800Z,2676.00
2019-06-20T04:05:13.696Z,2496.00
2019-06-20T04:06:13.798Z,2544.00
2019-06-20T04:07:13.738Z,2528.00
2019-06-20T04:08:13.639Z,2576.00
2019-06-20T04:09:13.558Z,2576.00
2019-06-20T04:10:15.301Z,2720.00
2019-06-20T04:11:13.679Z,2788.00
2019-06-20T04:12:13.634Z,2956.00
2019-06-20T04:13:13.487Z,3116.00
2019-06-20T04:14:13.686Z,3204.00
2019-06-20T04:15:19.019Z,3232.00
2019-06-20T04:16:13.542Z,3236.00
2019-06-20T04:17:13.453Z,3252.00
2019-06-20T04:18:13.617Z,3236.00
2019-06-20T04:19:13.580Z,3104.00
2019-06-20T04:20:13.469Z,3040.00
2019-06-20T04:21:13.594Z,3188.00
2019-06-20T04:22:13.650Z,3268.00
2019-06-20T04:23:13.595Z,3272.00
2019-06-20T04:24:14.401Z,3268.00
2019-06-20T04:25:14.327Z,3284.00
2019-06-20T04:26:13.496Z,3284.00
2019-06-20T04:27:14.201Z,3300.00
2019-06-20T04:28:13.453Z,3184.00
2019-06-20T04:29:13.451Z,3144.00
2019-06-20T04:30:13.520Z,3308.00
2019-06-20T04:31:13.509Z,3440.00
2019-06-20T04:32:13.488Z,3476.00
2019-06-20T04:33:13.425Z,3476.00
2019-06-20T04:34:14.319Z,3504.00
2019-06-20T04:35:14.327Z,3520.00
2019-06-20T04:36:13.382Z,3544.00
2019-06-20T04:37:13.305Z,3576.00
2019-06-20T04:38:13.449Z,3596.00
2019-06-20T04:39:19.147Z,3608.00
2019-06-20T04:40:13.395Z,3620.00
2019-06-20T04:41:13.534Z,3636.00
2019-06-20T04:42:14.188Z,3648.00
2019-06-20T04:43:13.424Z,3664.00
2019-06-20T04:44:13.463Z,3672.00
2019-06-20T04:45:15.350Z,3684.00
2019-06-20T04:46:13.338Z,3692.00
2019-06-20T04:47:13.384Z,3708.00
2019-06-20T04:48:15.213Z,3728.00
2019-06-20T04:49:13.344Z,3744.00
2019-06-20T04:50:13.354Z,3752.00
2019-06-20T04:51:13.332Z,3756.00
2019-06-20T04:52:14.272Z,3768.00
2019-06-20T04:53:13.755Z,3772.00
2019-06-20T04:54:15.822Z,3780.00
2019-06-20T04:55:13.382Z,3784.00
2019-06-20T04:56:13.264Z,3804.00
2019-06-20T04:57:13.190Z,3816.00
2019-06-20T04:58:13.053Z,3828.00
2019-06-20T04:59:13.216Z,3836.00
2019-06-20T05:00:13.751Z,3840.00
2019-06-20T05:01:13.815Z,3844.00
2019-06-20T05:02:15.058Z,3848.00
2019-06-20T05:03:13.688Z,3860.00
2019-06-20T05:04:13.241Z,3876.00
2019-06-20T05:05:13.973Z,3896.00
2019-06-20T05:06:13.262Z,3900.00
2019-06-20T05:07:13.188Z,3912.00
2019-06-20T05:08:13.078Z,3916.00
2019-06-20T05:09:13.220Z,3932.00
2019-06-20T05:10:13.124Z,3948.00
2019-06-20T05:11:15.782Z,3964.00
2019-06-20T05:12:13.229Z,3976.00
2019-06-20T05:13:13.246Z,3988.00
2019-06-20T05:14:13.271Z,3992.00
2019-06-20T05:15:13.312Z,3992.00
2019-06-20T05:16:13.221Z,3984.00
2019-06-20T05:17:13.097Z,3980.00
2019-06-20T05:18:13.236Z,3980.00
2019-06-20T05:19:13.047Z,3988.00
2019-06-20T05:20:13.246Z,4000.00
2019-06-20T05:21:12.970Z,4012.00
2019-06-20T05:22:14.839Z,4020.00
2019-06-20T05:23:13.010Z,4036.00
2019-06-20T05:24:13.133Z,4040.00
2019-06-20T05:25:12.997Z,4048.00
2019-06-20T05:26:13.079Z,4048.00
2019-06-20T05:27:13.138Z,4052.00
2019-06-20T05:28:13.088Z,4052.00
2019-06-20T05:31:13.734Z,4068.00
2019-06-20T05:32:12.996Z,4084.00
2019-06-20T05:33:13.025Z,4084.00
2019-06-20T05:34:13.122Z,4092.00
2019-06-20T05:35:13.961Z,4104.00
2019-06-20T05:36:14.879Z,4100.00
2019-06-20T05:37:13.124Z,4112.00
2019-06-20T05:38:13.056Z,4124.00
2019-06-20T05:39:13.001Z,4128.00
2019-06-20T05:40:13.045Z,4132.00
2019-06-20T05:41:13.069Z,4132.00
2019-06-20T05:42:12.979Z,4136.00
2019-06-20T05:43:13.045Z,4132.00
2019-06-20T05:44:13.078Z,4144.00
2019-06-20T05:45:14.766Z,4144.00
2019-06-20T05:46:12.916Z,4148.00
2019-06-20T05:47:19.789Z,4152.00
2019-06-20T05:48:12.960Z,4160.00
2019-06-20T05:49:13.796Z,4172.00
2019-06-20T05:50:13.304Z,4176.00
2019-06-20T05:51:14.805Z,4184.00
2019-06-20T05:52:13.049Z,4204.00
2019-06-20T05:53:12.836Z,4216.00
2019-06-20T05:54:12.996Z,4220.00
2019-06-20T05:55:12.926Z,4232.00
2019-06-20T05:56:12.959Z,4244.00
2019-06-20T05:57:12.916Z,4256.00
2019-06-20T05:58:12.926Z,4264.00
2019-06-20T05:59:12.930Z,4264.00
2019-06-20T06:00:14.500Z,4268.00
2019-06-20T06:01:12.937Z,4268.00
2019-06-20T06:02:13.034Z,4260.00
2019-06-20T06:03:13.856Z,4268.00
2019-06-20T06:04:12.895Z,4272.00
2019-06-20T06:05:12.902Z,4276.00
2019-06-20T06:06:12.805Z,4280.00
2019-06-20T06:08:12.738Z,4280.00
2019-06-20T06:09:13.364Z,4292.00
2019-06-20T06:10:13.396Z,4300.00
2019-06-20T06:11:13.436Z,4304.00
2019-06-20T06:12:13.481Z,4312.00
2019-06-20T06:13:12.748Z,4332.00
2019-06-20T06:14:12.754Z,4328.00
2019-06-20T06:15:12.862Z,4340.00
2019-06-20T06:16:25.738Z,4348.00
2019-06-20T06:17:12.746Z,4352.00
2019-06-20T06:18:12.745Z,4352.00
2019-06-20T06:19:12.719Z,4368.00
2019-06-20T06:20:13.436Z,4368.00
2019-06-20T06:21:13.479Z,4380.00
2019-06-20T06:22:13.335Z,4392.00
2019-06-20T06:23:13.339Z,4392.00
2019-06-20T06:24:12.789Z,4404.00
2019-06-20T06:25:12.819Z,4420.00
2019-06-20T06:26:12.656Z,4440.00
2019-06-20T06:28:12.806Z,4480.00
2019-06-20T06:29:13.429Z,4508.00
2019-06-20T06:30:12.787Z,4536.00
2019-06-20T06:31:12.776Z,4556.00
2019-06-20T06:32:12.777Z,4580.00
2019-06-20T06:33:12.837Z,4608.00
2019-06-20T06:34:12.683Z,4620.00
2019-06-20T06:36:12.806Z,4664.00
2019-06-20T06:37:12.719Z,4688.00
2019-06-20T06:38:14.532Z,4708.00
2019-06-20T06:39:13.481Z,4724.00
2019-06-20T06:41:12.646Z,4808.00
2019-06-20T06:42:12.669Z,4868.00
2019-06-20T06:43:12.798Z,4968.00
2019-06-20T06:44:12.722Z,5128.00
2019-06-20T06:45:12.732Z,5396.00
2019-06-20T06:46:12.737Z,5780.00
2019-06-20T06:47:12.681Z,6224.00
2019-06-20T06:48:12.727Z,6716.00
2019-06-20T06:49:12.772Z,7244.00
2019-06-20T06:50:12.593Z,7800.00
2019-06-20T06:51:12.703Z,8376.00
2019-06-20T06:52:13.480Z,8984.00
2019-06-20T06:53:15.479Z,9644.00
2019-06-20T06:54:12.543Z,10332.00
2019-06-20T06:55:12.624Z,11020.00
2019-06-20T06:56:12.617Z,11776.00
2019-06-20T06:57:13.527Z,12464.00
2019-06-20T06:58:12.469Z,13256.00
2019-06-20T06:59:12.623Z,13920.00
2019-06-20T07:00:13.175Z,14612.00
2019-06-20T07:01:13.527Z,15208.00
2019-06-20T07:04:12.672Z,17280.00
2019-06-20T07:05:14.495Z,18336.00
2019-06-20T07:06:13.119Z,19264.00
2019-06-20T07:07:12.580Z,20032.00
2019-06-20T07:08:12.583Z,20320.00
2019-06-20T07:09:12.601Z,20480.00
2019-06-20T07:10:12.592Z,20672.00
2019-06-20T07:12:12.510Z,21120.00
2019-06-20T07:15:12.726Z,22112.00
2019-06-20T07:16:13.582Z,22400.00
2019-06-20T07:17:13.072Z,22624.00
2019-06-20T07:20:15.157Z,23360.00
2019-06-20T07:21:12.826Z,23744.00
2019-06-20T07:26:14.079Z,25184.00
2019-06-20T07:27:13.062Z,25632.00
2019-06-20T07:30:12.528Z,27072.00
2019-06-20T07:31:14.087Z,27296.00
2019-06-20T07:33:13.984Z,27456.00
2019-06-20T07:34:12.532Z,27168.00
2019-06-20T07:38:13.074Z,27648.00
2019-06-20T07:39:12.546Z,27904.00
2019-06-20T07:40:12.537Z,28224.00
2019-06-20T07:41:12.510Z,28352.00
2019-06-20T07:42:12.512Z,28544.00
2019-06-20T07:43:13.080Z,28704.00
2019-06-20T07:44:12.521Z,28864.00
2019-06-20T07:46:12.531Z,29216.00
2019-06-20T07:47:17.549Z,29408.00
2019-06-20T07:49:14.074Z,29792.00
2019-06-20T07:50:13.538Z,30080.00
2019-06-20T07:51:12.514Z,30240.00
2019-06-20T07:52:12.485Z,30368.00
2019-06-20T07:55:12.499Z,30720.00
2019-06-20T07:56:12.437Z,30816.00
2019-06-20T07:58:12.534Z,31168.00
2019-06-20T07:59:12.526Z,31360.00
2019-06-20T08:00:13.975Z,31616.00
2019-06-20T08:01:12.550Z,31808.00
2019-06-20T08:04:13.516Z,32064.00
2019-06-20T08:05:12.586Z,32192.00
2019-06-20T08:07:12.972Z,32512.00
2019-06-20T08:08:13.084Z,32736.00
2019-06-20T08:09:12.515Z,32704.00
2019-06-20T08:10:13.055Z,32960.00
2019-06-20T08:11:12.552Z,33152.00
2019-06-20T08:12:12.617Z,33152.00
2019-06-20T08:13:13.089Z,33408.00
2019-06-20T08:14:12.487Z,33376.00
2019-06-20T08:15:15.405Z,33504.00
2019-06-20T08:16:12.573Z,33632.00
2019-06-20T08:17:12.570Z,33760.00
2019-06-20T08:18:12.574Z,33760.00
2019-06-20T08:19:12.625Z,33760.00
2019-06-20T08:21:13.142Z,34016.00
2019-06-20T08:22:12.582Z,34496.00
2019-06-20T08:24:12.559Z,34432.00
2019-06-20T08:25:12.649Z,34752.00
2019-06-20T08:26:12.561Z,34720.00
2019-06-20T08:27:14.892Z,35072.00
2019-06-20T08:28:12.505Z,34912.00
2019-06-20T08:29:20.674Z,35264.00
2019-06-20T08:30:12.439Z,35232.00
2019-06-20T08:31:12.630Z,35424.00
2019-06-20T08:32:12.611Z,35424.00
2019-06-20T08:33:12.504Z,35616.00
2019-06-20T08:34:13.577Z,35648.00
2019-06-20T08:35:12.614Z,35744.00
2019-06-20T08:36:13.392Z,35968.00
2019-06-20T08:37:13.463Z,36032.00
2019-06-20T08:38:12.644Z,36224.00
2019-06-20T08:39:12.533Z,36288.00
2019-06-20T08:40:13.104Z,36352.00
2019-06-20T08:42:12.611Z,36768.00
2019-06-20T08:43:12.734Z,36416.00
2019-06-20T08:44:12.819Z,36704.00
2019-06-20T08:45:12.677Z,36992.00
2019-06-20T08:46:12.698Z,37184.00
2019-06-20T08:47:12.524Z,37408.00
2019-06-20T08:48:12.667Z,37504.00
2019-06-20T08:49:12.693Z,37536.00
2019-06-20T08:50:12.713Z,37600.00
2019-06-20T08:51:14.675Z,37856.00
2019-06-20T08:52:12.641Z,37856.00
2019-06-20T08:53:12.693Z,38048.00
2019-06-20T08:54:13.421Z,37952.00
2019-06-20T08:55:12.594Z,38080.00
2019-06-20T08:56:12.864Z,37920.00
2019-06-20T08:57:12.766Z,38048.00
2019-06-20T08:58:12.505Z,38304.00
2019-06-20T08:59:23.915Z,38560.00
2019-06-20T09:00:12.668Z,38656.00
2019-06-20T09:01:12.781Z,38880.00
2019-06-20T09:02:12.946Z,39008.00
2019-06-20T09:03:12.656Z,39104.00
2019-06-20T09:04:13.470Z,39040.00
2019-06-20T09:05:12.793Z,39072.00
2019-06-20T09:06:12.630Z,39104.00
2019-06-20T09:07:12.704Z,39072.00
2019-06-20T09:08:12.726Z,39008.00
2019-06-20T09:09:12.814Z,39360.00
2019-06-20T09:10:12.769Z,39456.00
2019-06-20T09:11:12.781Z,39360.00
2019-06-20T09:12:12.821Z,39776.00
2019-06-20T09:13:13.012Z,39872.00
2019-06-20T09:14:12.699Z,39936.00
2019-06-20T09:15:12.945Z,39968.00
2019-06-20T09:16:24.123Z,40128.00
2019-06-20T09:17:12.862Z,40256.00
2019-06-20T09:18:12.995Z,40224.00
2019-06-20T09:19:12.910Z,40320.00
2019-06-20T09:20:12.808Z,40448.00
2019-06-20T09:21:12.778Z,40544.00
2019-06-20T09:22:12.882Z,40640.00
2019-06-20T09:23:12.746Z,40608.00
2019-06-20T09:24:12.975Z,40928.00
2019-06-20T09:25:12.964Z,41248.00
2019-06-20T09:26:12.835Z,41568.00
2019-06-20T09:27:15.435Z,41536.00
2019-06-20T09:28:13.023Z,41440.00
2019-06-20T09:29:12.868Z,41216.00
2019-06-20T09:30:12.827Z,41376.00
2019-06-20T09:31:13.494Z,41408.00
2019-06-20T09:32:12.892Z,41568.00
2019-06-20T09:33:12.927Z,41728.00
2019-06-20T09:34:14.860Z,41664.00
2019-06-20T09:35:13.154Z,42048.00
2019-06-20T09:36:12.924Z,42048.00
2019-06-20T09:37:13.021Z,42304.00
2019-06-20T09:38:13.847Z,42336.00
2019-06-20T09:40:13.005Z,42528.00
2019-06-20T09:41:13.233Z,42592.00
2019-06-20T09:42:12.896Z,42624.00
2019-06-20T09:43:26.726Z,42784.00
2019-06-20T09:44:13.764Z,42848.00
2019-06-20T09:45:12.877Z,42848.00
2019-06-20T09:46:12.940Z,43040.00
2019-06-20T09:47:13.800Z,43136.00
2019-06-20T09:48:12.964Z,43264.00
2019-06-20T09:49:13.075Z,43456.00
2019-06-20T09:50:12.972Z,43584.00
2019-06-20T09:51:13.181Z,43712.00
2019-06-20T09:52:13.084Z,43840.00
2019-06-20T09:53:13.081Z,44064.00
2019-06-20T09:54:13.086Z,44160.00
2019-06-20T09:55:13.076Z,44416.00
2019-06-20T09:56:12.964Z,44352.00
2019-06-20T09:57:13.039Z,44512.00
2019-06-20T09:58:13.117Z,44608.00
2019-06-20T09:59:26.824Z,44768.00
2019-06-20T10:00:13.132Z,44896.00
2019-06-20T10:01:13.813Z,45088.00
2019-06-20T10:02:13.814Z,45120.00
2019-06-20T10:03:13.155Z,45088.00
2019-06-20T10:04:13.055Z,45344.00
2019-06-20T10:05:13.221Z,45536.00
2019-06-20T10:06:14.583Z,45696.00
2019-06-20T10:07:13.076Z,45888.00
2019-06-20T10:08:13.282Z,45888.00
2019-06-20T10:09:13.178Z,45856.00
2019-06-20T10:10:13.187Z,45952.00
2019-06-20T10:11:13.183Z,46048.00
2019-06-20T10:12:13.280Z,46496.00
2019-06-20T10:13:13.197Z,46656.00
2019-06-20T10:14:13.243Z,47008.00
2019-06-20T10:15:13.301Z,47104.00
2019-06-20T10:16:13.321Z,47264.00
2019-06-20T10:17:13.242Z,47296.00
2019-06-20T10:18:13.295Z,47488.00
2019-06-20T10:19:13.517Z,47744.00
2019-06-20T10:20:13.253Z,48064.00
2019-06-20T10:21:13.227Z,48224.00
2019-06-20T10:22:13.314Z,48640.00
2019-06-20T10:23:13.293Z,48704.00
2019-06-20T10:24:13.270Z,48992.00
2019-06-20T10:25:13.257Z,49184.00
2019-06-20T10:26:13.411Z,49664.00
2019-06-20T10:27:13.343Z,50272.00
2019-06-20T10:28:13.328Z,51008.00
2019-06-20T10:29:13.323Z,51488.00
2019-06-20T10:30:14.633Z,52192.00
2019-06-20T10:31:13.493Z,40224.00
2019-06-20T10:32:15.432Z,49344.00
2019-06-20T10:33:13.408Z,50432.00
2019-06-20T10:34:13.423Z,49472.00
2019-06-20T10:35:13.487Z,48832.00
2019-06-20T10:36:13.489Z,49376.00
2019-06-20T10:37:14.371Z,38176.00
2019-06-20T10:38:13.479Z,48032.00
2019-06-20T10:39:13.467Z,40448.00
2019-06-20T10:40:13.729Z,40160.00
2019-06-20T10:41:13.463Z,39104.00
2019-06-20T10:42:13.776Z,51424.00
2019-06-20T10:43:13.454Z,51168.00
2019-06-20T10:44:13.594Z,44096.00
2019-06-20T10:45:15.292Z,48192.00
2019-06-20T10:46:13.535Z,50880.00
2019-06-20T10:47:13.641Z,55744.00
2019-06-20T10:48:13.742Z,38144.00
2019-06-20T10:49:15.315Z,44096.00
2019-06-20T10:50:13.571Z,34944.00
2019-06-20T10:51:13.676Z,42784.00
2019-06-20T10:52:13.637Z,51104.00
2019-06-20T10:53:13.636Z,59744.00
2019-06-20T10:54:13.820Z,58368.00
2019-06-20T10:55:13.721Z,32672.00
2019-06-20T10:56:13.896Z,61344.00
2019-06-20T10:57:13.674Z,56992.00
2019-06-20T10:58:13.740Z,41376.00
2019-06-20T10:59:13.692Z,37344.00
2019-06-20T11:00:29.304Z,43456.00
2019-06-20T11:01:13.634Z,53376.00
2019-06-20T11:02:13.798Z,48480.00
2019-06-20T11:03:13.725Z,54816.00
2019-06-20T11:04:13.758Z,53856.00
2019-06-20T11:05:13.743Z,53664.00
2019-06-20T11:06:13.815Z,53984.00
2019-06-20T11:07:13.783Z,26112.00
2019-06-20T11:08:13.826Z,22112.00
2019-06-20T11:09:13.740Z,13552.00
2019-06-20T11:10:13.897Z,13760.00
2019-06-20T11:11:13.874Z,11776.00
2019-06-20T11:12:13.876Z,10672.00
2019-06-20T11:13:13.953Z,9956.00
2019-06-20T11:15:15.144Z,8812.00
2019-06-20T11:17:14.176Z,8508.00
2019-06-20T11:18:14.178Z,8616.00
2019-06-20T11:19:14.749Z,8816.00
2019-06-20T11:20:14.174Z,8980.00
2019-06-20T11:22:14.139Z,9180.00
2019-06-20T11:23:14.229Z,8596.00
2019-06-20T11:24:14.246Z,7916.00
2019-06-20T11:25:14.223Z,7056.00
2019-06-20T11:26:14.227Z,6352.00
2019-06-20T11:27:14.213Z,5780.00
2019-06-20T11:28:15.131Z,5220.00
2019-06-20T11:29:14.767Z,4740.00
2019-06-20T11:32:14.238Z,4200.00
2019-06-20T11:33:14.217Z,4216.00
2019-06-20T11:35:14.213Z,4324.00
2019-06-20T11:36:14.223Z,4428.00
2019-06-20T11:37:14.191Z,4544.00
2019-06-20T11:38:14.228Z,4620.00
2019-06-20T11:39:14.742Z,4596.00
2019-06-20T11:40:14.190Z,4496.00
2019-06-20T11:41:14.709Z,4376.00
2019-06-20T11:42:14.731Z,4156.00
2019-06-20T11:43:14.138Z,3888.00
2019-06-20T11:44:14.229Z,3672.00
2019-06-20T11:45:15.711Z,3500.00
2019-06-20T11:47:14.149Z,3392.00
2019-06-20T11:48:14.144Z,3420.00
2019-06-20T11:49:14.749Z,3504.00
2019-06-20T11:50:14.151Z,3628.00
2019-06-20T11:51:14.127Z,3752.00
2019-06-20T11:52:19.245Z,3912.00
2019-06-20T11:53:14.129Z,4184.00
2019-06-20T11:55:14.164Z,5124.00
2019-06-20T11:56:14.120Z,5696.00
2019-06-20T11:58:14.668Z,6832.00
2019-06-20T11:59:14.143Z,7340.00
2019-06-20T12:00:14.121Z,7788.00
2019-06-20T12:01:14.116Z,8252.00
2019-06-20T12:02:14.142Z,8744.00
2019-06-20T12:03:14.102Z,9284.00
2019-06-20T12:04:14.173Z,9596.00
2019-06-20T12:05:16.158Z,9612.00
2019-06-20T12:06:14.100Z,9788.00
2019-06-20T12:07:15.148Z,10180.00
2019-06-20T12:08:14.100Z,10736.00
2019-06-20T12:10:14.166Z,10812.00
2019-06-20T12:11:14.123Z,10400.00
2019-06-20T12:12:14.625Z,9912.00
2019-06-20T12:14:14.066Z,9032.00
2019-06-20T12:15:14.125Z,9148.00
2019-06-20T12:16:14.087Z,9688.00
2019-06-20T12:17:16.750Z,10484.00
2019-06-20T12:18:14.089Z,12972.00
2019-06-20T12:19:14.072Z,12496.00
2019-06-20T12:21:14.069Z,11080.00
2019-06-20T12:22:14.055Z,10788.00
2019-06-20T12:23:14.058Z,10820.00
2019-06-20T12:24:14.518Z,10976.00
2019-06-20T12:27:14.083Z,10764.00
2019-06-20T12:28:14.022Z,10456.00
2019-06-20T12:29:14.029Z,10136.00
2019-06-20T12:30:14.045Z,10056.00
2019-06-20T12:31:19.338Z,10196.00
2019-06-20T12:32:14.024Z,10416.00
2019-06-20T12:33:14.039Z,10792.00
2019-06-20T12:34:14.049Z,11416.00
2019-06-20T12:36:14.027Z,12932.00
2019-06-20T12:37:14.015Z,14660.00
2019-06-20T12:39:14.561Z,12960.00
2019-06-20T12:40:14.020Z,12448.00
2019-06-20T12:41:14.791Z,12140.00
2019-06-20T12:42:15.259Z,13516.00
2019-06-20T12:44:13.981Z,12668.00
2019-06-20T12:45:13.996Z,13384.00
2019-06-20T12:46:13.993Z,14464.00
2019-06-20T12:47:14.709Z,15628.00
2019-06-20T12:48:14.570Z,17440.00
2019-06-20T12:49:14.738Z,26528.00
2019-06-20T12:50:14.592Z,21952.00
2019-06-20T12:51:16.746Z,54048.00
2019-06-20T12:52:14.529Z,44160.00
2019-06-20T12:53:13.992Z,54912.00
2019-06-20T12:54:13.953Z,36288.00
2019-06-20T12:55:13.984Z,37856.00
2019-06-20T12:56:14.479Z,44128.00
2019-06-20T12:57:14.019Z,47136.00
2019-06-20T12:59:13.997Z,26816.00